Ransom, Kansas
Current Conditions -  °F | °C
As of 10:55 AM on Thursday 30 Oct 2014 (Local Time) from KHYS Reporting Station
Clear Clear  
Wind Chill: 61°   Ceiling: Unl
Heat Index: 61°   Visibility: 10mi
Dew Point: 34°   Wind: 15mph
Humidity: 36%   Direction: 330°NNW
Pressure: 30.22"   Gusts: NA
Location:  38.64°N, 99.93°W
Report Text: KHYS 301555Z AUTO 33013KT 10SM CLR 16/01 A3022 RMK AO1
Loading
Personal Weather Stations






























Interactive Weather Map
Tropical Storm Tracking
New forecast layout! Learn more

10-Day Weather Forecast

Advertisements
Track Severe Weather on mobile